Startpagina
METAR-TAF:

METAR-TAF

Vliegvelden :

Hrodna, Wit-Rusland

breedte: 53-36-06N, lengte: 024-03-18E, hoogte: 135 m

Actueel weer

Dit bericht is 16 minuten geleden gemaakt, om 12:30 UTC
Wind 17 kt uit het zuidoosten met uitschieters tot 23 kt
Temperatuur -1°C
Vochtigheid 64%
Druk 1027 hPa
Zicht 10 km of meer
Gebroken wolken op 2300 ft
Gebroken wolken op 10000 ft

METAR: UMMG 221230Z 14009G12MPS 9999 BKN023 BKN100 M01/M07 Q1027 R17/CLRD// NOSIG

Tijdstip: 15:46 (12:46 UTC)

Verwachting

Dit bericht is 1 uur en het 42 minuten geleden gemaakt, om 11:04 UTC
Verwachting geldig van 22 om 12 UTC tot 22 om 21 UTC
Wind 17 kt uit het zuidoosten met uitschieters tot 27 kt
Zicht 10 km of meer
Gebroken wolken op 1700 ft
Tijdelijke
van 22 om 12 UTC tot 22 om 21 UTC
Wind 21 kt uit het zuidoosten met uitschieters tot 31 kt
Gebroken wolken op 1200 ft

TAF: UMMG 221104Z 2212/2221 13009G14MPS 9999 BKN017 TEMPO 2212/2221 14011G16MPS BKN012

Waarnemingen en weersverwachtingen van meer dan 4000 vliegvelden (METAR en TAF).

De beschikbare stations zijn de gele en rode punten op de kaart.

Ga met uw muis naar het station om de naam te zien.

Klik dan om waarnemingen en weersverwachtingen te zien.

kaart wijzigen: klik op de groene knoppen met een zwart kruis om in te zoomen, op de groene knop met een streepje om uit te zoomen of op de groene pijlen voor aangrenzende kaarten.


METAR-TAF: